Terminal Aerodrome Forecast
Issued by NWS Omaha/Valley, NE

Home | Current Version | Previous Version | Text Only | Print | Product List | Glossary On
Versions: 1 2 3 4 5 6 7 8 9 10 11 12 13 14 15 16 17 18 19 20 21 22 23 24 25 26 27 28
000
FTUS43 KOAX 272324
TAFOMA
TAF
KOMA 272324Z 2800/2824 16017KT P6SM SCT150 OVC250
     FM280100 15013KT P6SM BKN150 OVC250
      TEMPO 2804/2807 5SM -TSRA OVC050CB
     FM280800 15013KT P6SM SCT050 BKN100
     FM281500 31012KT P6SM SCT030 BKN050=

USA.gov is the U.S. government's official web portal to all federal, state and local government web resources and services.